sensor_id;sensor_type;location;lat;lon;timestamp;P1;durP1;ratioP1;P2;durP2;ratioP2
15645;SDS011;7922;43.622;1.476;2022-12-18T00:00:41;13.80;;;12.30;;
15645;SDS011;7922;43.622;1.476;2022-12-18T00:03:06;14.67;;;13.07;;
15645;SDS011;7922;43.622;1.476;2022-12-18T00:05:32;14.00;;;12.43;;
15645;SDS011;7922;43.622;1.476;2022-12-18T00:07:57;14.87;;;12.33;;
15645;SDS011;7922;43.622;1.476;2022-12-18T00:10:22;14.50;;;13.07;;
15645;SDS011;7922;43.622;1.476;2022-12-18T00:12:47;16.37;;;12.67;;
15645;SDS011;7922;43.622;1.476;2022-12-18T00:15:13;14.70;;;11.80;;
15645;SDS011;7922;43.622;1.476;2022-12-18T00:17:38;13.97;;;11.63;;
15645;SDS011;7922;43.622;1.476;2022-12-18T00:20:03;13.40;;;12.00;;
15645;SDS011;7922;43.622;1.476;2022-12-18T00:22:29;14.17;;;12.00;;
15645;SDS011;7922;43.622;1.476;2022-12-18T00:24:54;13.57;;;12.10;;
15645;SDS011;7922;43.622;1.476;2022-12-18T00:27:20;14.67;;;11.90;;
15645;SDS011;7922;43.622;1.476;2022-12-18T00:29:45;15.50;;;12.23;;
15645;SDS011;7922;43.622;1.476;2022-12-18T00:32:10;13.50;;;11.87;;
15645;SDS011;7922;43.622;1.476;2022-12-18T00:34:35;15.43;;;11.80;;
15645;SDS011;7922;43.622;1.476;2022-12-18T00:37:01;14.23;;;12.73;;
15645;SDS011;7922;43.622;1.476;2022-12-18T00:39:26;15.50;;;12.70;;
15645;SDS011;7922;43.622;1.476;2022-12-18T00:41:51;14.67;;;12.70;;
15645;SDS011;7922;43.622;1.476;2022-12-18T00:44:17;14.67;;;12.97;;
15645;SDS011;7922;43.622;1.476;2022-12-18T00:46:43;14.70;;;13.20;;
15645;SDS011;7922;43.622;1.476;2022-12-18T00:49:09;16.90;;;13.80;;
15645;SDS011;7922;43.622;1.476;2022-12-18T00:51:38;14.77;;;12.10;;
15645;SDS011;7922;43.622;1.476;2022-12-18T00:54:04;13.37;;;11.97;;
15645;SDS011;7922;43.622;1.476;2022-12-18T00:56:29;12.63;;;10.67;;
15645;SDS011;7922;43.622;1.476;2022-12-18T00:58:54;12.23;;;11.03;;
15645;SDS011;7922;43.622;1.476;2022-12-18T01:01:19;13.30;;;10.90;;
15645;SDS011;7922;43.622;1.476;2022-12-18T01:03:45;12.83;;;11.43;;
15645;SDS011;7922;43.622;1.476;2022-12-18T01:06:11;12.17;;;10.67;;
15645;SDS011;7922;43.622;1.476;2022-12-18T01:08:38;11.70;;;10.50;;
15645;SDS011;7922;43.622;1.476;2022-12-18T01:11:14;12.60;;;11.30;;
15645;SDS011;7922;43.622;1.476;2022-12-18T01:13:41;13.30;;;11.53;;
15645;SDS011;7922;43.622;1.476;2022-12-18T01:16:06;12.00;;;10.70;;
15645;SDS011;7922;43.622;1.476;2022-12-18T01:18:32;12.67;;;10.83;;
15645;SDS011;7922;43.622;1.476;2022-12-18T01:20:57;12.27;;;10.57;;
15645;SDS011;7922;43.622;1.476;2022-12-18T01:23:23;13.40;;;10.93;;
15645;SDS011;7922;43.622;1.476;2022-12-18T01:25:48;12.40;;;11.10;;
15645;SDS011;7922;43.622;1.476;2022-12-18T01:28:13;12.00;;;10.70;;
15645;SDS011;7922;43.622;1.476;2022-12-18T01:30:38;12.50;;;11.30;;
15645;SDS011;7922;43.622;1.476;2022-12-18T01:33:04;12.87;;;11.47;;
15645;SDS011;7922;43.622;1.476;2022-12-18T01:35:30;12.90;;;11.50;;
15645;SDS011;7922;43.622;1.476;2022-12-18T01:37:55;15.77;;;11.50;;
15645;SDS011;7922;43.622;1.476;2022-12-18T01:40:21;13.03;;;11.67;;
15645;SDS011;7922;43.622;1.476;2022-12-18T01:42:50;12.97;;;11.67;;
15645;SDS011;7922;43.622;1.476;2022-12-18T01:45:24;12.37;;;11.17;;
15645;SDS011;7922;43.622;1.476;2022-12-18T01:48:00;12.77;;;10.60;;
15645;SDS011;7922;43.622;1.476;2022-12-18T01:52:55;12.63;;;11.43;;
15645;SDS011;7922;43.622;1.476;2022-12-18T01:55:24;15.30;;;11.67;;
15645;SDS011;7922;43.622;1.476;2022-12-18T01:57:52;14.03;;;11.13;;
15645;SDS011;7922;43.622;1.476;2022-12-18T02:00:19;12.53;;;11.20;;
15645;SDS011;7922;43.622;1.476;2022-12-18T02:02:46;12.87;;;11.43;;
15645;SDS011;7922;43.622;1.476;2022-12-18T02:05:12;13.13;;;11.50;;
15645;SDS011;7922;43.622;1.476;2022-12-18T02:10:29;13.70;;;11.53;;
15645;SDS011;7922;43.622;1.476;2022-12-18T02:13:13;12.53;;;11.10;;
15645;SDS011;7922;43.622;1.476;2022-12-18T02:19:00;14.70;;;11.67;;
15645;SDS011;7922;43.622;1.476;2022-12-18T02:26:32;13.43;;;11.67;;
15645;SDS011;7922;43.622;1.476;2022-12-18T02:29:08;13.07;;;11.50;;
15645;SDS011;7922;43.622;1.476;2022-12-18T02:31:42;14.77;;;12.17;;
15645;SDS011;7922;43.622;1.476;2022-12-18T02:34:10;15.13;;;12.00;;
15645;SDS011;7922;43.622;1.476;2022-12-18T02:36:38;14.00;;;12.40;;
15645;SDS011;7922;43.622;1.476;2022-12-18T02:39:05;16.03;;;13.27;;
15645;SDS011;7922;43.622;1.476;2022-12-18T02:41:32;13.90;;;12.40;;
15645;SDS011;7922;43.622;1.476;2022-12-18T02:44:01;14.13;;;12.63;;
15645;SDS011;7922;43.622;1.476;2022-12-18T02:49:09;16.40;;;12.37;;
15645;SDS011;7922;43.622;1.476;2022-12-18T02:51:56;13.93;;;12.27;;
15645;SDS011;7922;43.622;1.476;2022-12-18T02:57:05;15.37;;;12.67;;
15645;SDS011;7922;43.622;1.476;2022-12-18T02:59:58;13.70;;;11.70;;
15645;SDS011;7922;43.622;1.476;2022-12-18T03:02:47;14.73;;;12.37;;
15645;SDS011;7922;43.622;1.476;2022-12-18T03:05:22;15.73;;;12.87;;
15645;SDS011;7922;43.622;1.476;2022-12-18T03:07:59;15.63;;;12.47;;
15645;SDS011;7922;43.622;1.476;2022-12-18T03:10:29;13.10;;;11.73;;
15645;SDS011;7922;43.622;1.476;2022-12-18T03:13:02;14.27;;;11.97;;
15645;SDS011;7922;43.622;1.476;2022-12-18T03:15:30;13.60;;;11.93;;
15645;SDS011;7922;43.622;1.476;2022-12-18T03:18:01;15.67;;;12.03;;
15645;SDS011;7922;43.622;1.476;2022-12-18T03:20:29;13.70;;;11.57;;
15645;SDS011;7922;43.622;1.476;2022-12-18T03:23:01;14.93;;;12.63;;
15645;SDS011;7922;43.622;1.476;2022-12-18T03:25:29;13.33;;;11.80;;
15645;SDS011;7922;43.622;1.476;2022-12-18T03:27:56;13.03;;;11.63;;
15645;SDS011;7922;43.622;1.476;2022-12-18T03:30:24;13.50;;;11.40;;
15645;SDS011;7922;43.622;1.476;2022-12-18T03:32:56;13.10;;;11.60;;
15645;SDS011;7922;43.622;1.476;2022-12-18T03:35:27;14.20;;;12.40;;
15645;SDS011;7922;43.622;1.476;2022-12-18T03:37:54;13.93;;;11.43;;
15645;SDS011;7922;43.622;1.476;2022-12-18T03:40:20;13.13;;;11.70;;
15645;SDS011;7922;43.622;1.476;2022-12-18T03:42:52;14.53;;;12.27;;
15645;SDS011;7922;43.622;1.476;2022-12-18T03:50:39;13.47;;;12.07;;
15645;SDS011;7922;43.622;1.476;2022-12-18T03:55:38;16.47;;;12.43;;
15645;SDS011;7922;43.622;1.476;2022-12-18T03:58:04;12.80;;;11.47;;
15645;SDS011;7922;43.622;1.476;2022-12-18T04:00:31;13.80;;;12.10;;
15645;SDS011;7922;43.622;1.476;2022-12-18T04:02:56;15.73;;;11.87;;
15645;SDS011;7922;43.622;1.476;2022-12-18T04:05:24;15.23;;;12.37;;
15645;SDS011;7922;43.622;1.476;2022-12-18T04:07:50;16.83;;;12.63;;
15645;SDS011;7922;43.622;1.476;2022-12-18T04:10:16;13.90;;;11.97;;
15645;SDS011;7922;43.622;1.476;2022-12-18T04:12:42;13.27;;;11.87;;
15645;SDS011;7922;43.622;1.476;2022-12-18T04:15:08;13.30;;;11.70;;
15645;SDS011;7922;43.622;1.476;2022-12-18T04:17:34;14.73;;;11.97;;
15645;SDS011;7922;43.622;1.476;2022-12-18T04:19:59;14.97;;;11.10;;
15645;SDS011;7922;43.622;1.476;2022-12-18T04:22:24;15.20;;;12.63;;
15645;SDS011;7922;43.622;1.476;2022-12-18T04:24:50;13.20;;;11.80;;
15645;SDS011;7922;43.622;1.476;2022-12-18T04:27:15;13.03;;;11.43;;
15645;SDS011;7922;43.622;1.476;2022-12-18T04:29:40;15.17;;;12.00;;
15645;SDS011;7922;43.622;1.476;2022-12-18T04:32:06;13.97;;;12.27;;
15645;SDS011;7922;43.622;1.476;2022-12-18T04:34:32;14.27;;;12.37;;
15645;SDS011;7922;43.622;1.476;2022-12-18T04:36:57;13.90;;;12.40;;
15645;SDS011;7922;43.622;1.476;2022-12-18T04:39:22;14.87;;;11.33;;
15645;SDS011;7922;43.622;1.476;2022-12-18T04:41:48;15.27;;;12.47;;
15645;SDS011;7922;43.622;1.476;2022-12-18T04:44:13;15.43;;;11.90;;
15645;SDS011;7922;43.622;1.476;2022-12-18T04:46:38;15.40;;;12.33;;
15645;SDS011;7922;43.622;1.476;2022-12-18T04:49:04;14.87;;;12.33;;
15645;SDS011;7922;43.622;1.476;2022-12-18T04:51:29;15.93;;;13.33;;
15645;SDS011;7922;43.622;1.476;2022-12-18T04:53:54;16.03;;;13.03;;
15645;SDS011;7922;43.622;1.476;2022-12-18T04:56:20;14.47;;;12.67;;
15645;SDS011;7922;43.622;1.476;2022-12-18T04:58:45;13.23;;;11.87;;
15645;SDS011;7922;43.622;1.476;2022-12-18T05:01:11;14.97;;;12.70;;
15645;SDS011;7922;43.622;1.476;2022-12-18T05:03:38;12.73;;;11.43;;
15645;SDS011;7922;43.622;1.476;2022-12-18T05:06:04;13.20;;;11.80;;
15645;SDS011;7922;43.622;1.476;2022-12-18T05:08:30;13.60;;;11.20;;
15645;SDS011;7922;43.622;1.476;2022-12-18T05:10:59;12.10;;;10.80;;
15645;SDS011;7922;43.622;1.476;2022-12-18T05:13:26;13.67;;;10.63;;
15645;SDS011;7922;43.622;1.476;2022-12-18T05:15:52;11.70;;;10.50;;
15645;SDS011;7922;43.622;1.476;2022-12-18T05:18:17;11.67;;;10.23;;
15645;SDS011;7922;43.622;1.476;2022-12-18T05:20:43;12.60;;;10.77;;
15645;SDS011;7922;43.622;1.476;2022-12-18T05:23:08;11.77;;;10.37;;
15645;SDS011;7922;43.622;1.476;2022-12-18T05:25:33;10.63;;;9.53;;
15645;SDS011;7922;43.622;1.476;2022-12-18T05:27:58;11.70;;;10.43;;
15645;SDS011;7922;43.622;1.476;2022-12-18T05:30:24;11.27;;;10.07;;
15645;SDS011;7922;43.622;1.476;2022-12-18T05:32:49;11.93;;;10.27;;
15645;SDS011;7922;43.622;1.476;2022-12-18T05:35:14;11.43;;;9.73;;
15645;SDS011;7922;43.622;1.476;2022-12-18T05:37:40;10.77;;;9.40;;
15645;SDS011;7922;43.622;1.476;2022-12-18T05:40:05;11.10;;;9.83;;
15645;SDS011;7922;43.622;1.476;2022-12-18T05:42:31;10.80;;;9.70;;
15645;SDS011;7922;43.622;1.476;2022-12-18T05:44:56;10.73;;;9.63;;
15645;SDS011;7922;43.622;1.476;2022-12-18T05:47:22;11.60;;;10.40;;
15645;SDS011;7922;43.622;1.476;2022-12-18T05:49:47;12.00;;;10.77;;
15645;SDS011;7922;43.622;1.476;2022-12-18T05:52:12;12.10;;;10.90;;
15645;SDS011;7922;43.622;1.476;2022-12-18T05:54:37;11.77;;;10.50;;
15645;SDS011;7922;43.622;1.476;2022-12-18T05:57:03;11.30;;;10.07;;
15645;SDS011;7922;43.622;1.476;2022-12-18T05:59:28;11.40;;;10.20;;
15645;SDS011;7922;43.622;1.476;2022-12-18T06:01:53;13.73;;;10.93;;
15645;SDS011;7922;43.622;1.476;2022-12-18T06:04:18;14.40;;;10.93;;
15645;SDS011;7922;43.622;1.476;2022-12-18T06:06:44;11.93;;;10.73;;
15645;SDS011;7922;43.622;1.476;2022-12-18T06:09:09;13.30;;;11.57;;
15645;SDS011;7922;43.622;1.476;2022-12-18T06:11:35;11.83;;;10.47;;
15645;SDS011;7922;43.622;1.476;2022-12-18T06:14:01;11.73;;;10.53;;
15645;SDS011;7922;43.622;1.476;2022-12-18T06:16:27;13.37;;;11.10;;
15645;SDS011;7922;43.622;1.476;2022-12-18T06:18:53;12.17;;;10.90;;
15645;SDS011;7922;43.622;1.476;2022-12-18T06:21:21;12.57;;;11.13;;
15645;SDS011;7922;43.622;1.476;2022-12-18T06:23:46;12.13;;;10.63;;
15645;SDS011;7922;43.622;1.476;2022-12-18T06:26:12;13.00;;;11.57;;
15645;SDS011;7922;43.622;1.476;2022-12-18T06:28:38;11.80;;;10.60;;
15645;SDS011;7922;43.622;1.476;2022-12-18T06:31:03;12.07;;;10.77;;
15645;SDS011;7922;43.622;1.476;2022-12-18T06:33:29;12.77;;;10.37;;
15645;SDS011;7922;43.622;1.476;2022-12-18T06:35:59;13.33;;;10.57;;
15645;SDS011;7922;43.622;1.476;2022-12-18T06:38:26;13.53;;;11.10;;
15645;SDS011;7922;43.622;1.476;2022-12-18T06:40:52;13.40;;;11.07;;
15645;SDS011;7922;43.622;1.476;2022-12-18T06:43:17;11.80;;;10.50;;
15645;SDS011;7922;43.622;1.476;2022-12-18T06:45:42;13.00;;;11.07;;
15645;SDS011;7922;43.622;1.476;2022-12-18T06:48:07;13.63;;;10.97;;
15645;SDS011;7922;43.622;1.476;2022-12-18T06:50:33;13.53;;;11.80;;
15645;SDS011;7922;43.622;1.476;2022-12-18T06:52:58;14.53;;;11.00;;
15645;SDS011;7922;43.622;1.476;2022-12-18T06:55:24;13.40;;;11.87;;
15645;SDS011;7922;43.622;1.476;2022-12-18T06:57:49;13.20;;;11.80;;
15645;SDS011;7922;43.622;1.476;2022-12-18T07:00:14;15.67;;;12.80;;
15645;SDS011;7922;43.622;1.476;2022-12-18T07:02:40;13.03;;;11.63;;
15645;SDS011;7922;43.622;1.476;2022-12-18T07:05:05;13.67;;;11.60;;
15645;SDS011;7922;43.622;1.476;2022-12-18T07:07:31;13.07;;;11.73;;
15645;SDS011;7922;43.622;1.476;2022-12-18T07:09:56;15.03;;;12.83;;
15645;SDS011;7922;43.622;1.476;2022-12-18T07:12:21;14.80;;;12.27;;
15645;SDS011;7922;43.622;1.476;2022-12-18T07:14:47;13.17;;;11.77;;
15645;SDS011;7922;43.622;1.476;2022-12-18T07:17:12;12.40;;;11.10;;
15645;SDS011;7922;43.622;1.476;2022-12-18T07:19:38;14.00;;;11.50;;
15645;SDS011;7922;43.622;1.476;2022-12-18T07:22:03;13.43;;;10.73;;
15645;SDS011;7922;43.622;1.476;2022-12-18T07:24:28;13.47;;;12.03;;
15645;SDS011;7922;43.622;1.476;2022-12-18T07:26:54;14.50;;;11.97;;
15645;SDS011;7922;43.622;1.476;2022-12-18T07:29:19;13.47;;;11.57;;
15645;SDS011;7922;43.622;1.476;2022-12-18T07:31:44;13.37;;;11.17;;
15645;SDS011;7922;43.622;1.476;2022-12-18T07:34:10;15.27;;;12.50;;
15645;SDS011;7922;43.622;1.476;2022-12-18T07:36:36;14.23;;;11.97;;
15645;SDS011;7922;43.622;1.476;2022-12-18T07:39:02;14.10;;;12.33;;
15645;SDS011;7922;43.622;1.476;2022-12-18T07:41:27;14.97;;;12.33;;
15645;SDS011;7922;43.622;1.476;2022-12-18T07:43:52;15.23;;;12.17;;
15645;SDS011;7922;43.622;1.476;2022-12-18T07:46:18;13.80;;;12.03;;
15645;SDS011;7922;43.622;1.476;2022-12-18T07:48:44;15.37;;;12.23;;
15645;SDS011;7922;43.622;1.476;2022-12-18T07:51:09;14.47;;;12.07;;
15645;SDS011;7922;43.622;1.476;2022-12-18T07:53:35;12.80;;;11.00;;
15645;SDS011;7922;43.622;1.476;2022-12-18T07:56:01;14.87;;;11.20;;
15645;SDS011;7922;43.622;1.476;2022-12-18T07:58:28;13.83;;;11.17;;
15645;SDS011;7922;43.622;1.476;2022-12-18T08:00:54;13.00;;;11.60;;
15645;SDS011;7922;43.622;1.476;2022-12-18T08:03:19;11.60;;;10.23;;
15645;SDS011;7922;43.622;1.476;2022-12-18T08:05:45;14.80;;;11.23;;
15645;SDS011;7922;43.622;1.476;2022-12-18T08:08:10;12.73;;;11.13;;
15645;SDS011;7922;43.622;1.476;2022-12-18T08:10:37;12.47;;;11.17;;
15645;SDS011;7922;43.622;1.476;2022-12-18T08:13:02;12.87;;;10.57;;
15645;SDS011;7922;43.622;1.476;2022-12-18T08:15:28;12.20;;;10.90;;
15645;SDS011;7922;43.622;1.476;2022-12-18T08:17:56;15.03;;;12.63;;
15645;SDS011;7922;43.622;1.476;2022-12-18T08:20:21;12.80;;;10.90;;
15645;SDS011;7922;43.622;1.476;2022-12-18T08:22:46;12.57;;;11.10;;
15645;SDS011;7922;43.622;1.476;2022-12-18T08:25:12;13.03;;;11.67;;
15645;SDS011;7922;43.622;1.476;2022-12-18T08:27:37;13.80;;;12.43;;
15645;SDS011;7922;43.622;1.476;2022-12-18T08:30:03;12.80;;;11.50;;
15645;SDS011;7922;43.622;1.476;2022-12-18T08:32:29;12.10;;;10.80;;
15645;SDS011;7922;43.622;1.476;2022-12-18T08:34:54;11.20;;;10.03;;
15645;SDS011;7922;43.622;1.476;2022-12-18T08:37:19;11.43;;;10.27;;
15645;SDS011;7922;43.622;1.476;2022-12-18T08:39:45;11.57;;;9.87;;
15645;SDS011;7922;43.622;1.476;2022-12-18T08:42:10;12.30;;;11.03;;
15645;SDS011;7922;43.622;1.476;2022-12-18T08:44:35;14.20;;;12.70;;
15645;SDS011;7922;43.622;1.476;2022-12-18T08:47:01;21.77;;;19.43;;
15645;SDS011;7922;43.622;1.476;2022-12-18T08:49:26;13.57;;;12.13;;
15645;SDS011;7922;43.622;1.476;2022-12-18T08:51:53;13.33;;;11.93;;
15645;SDS011;7922;43.622;1.476;2022-12-18T08:54:19;16.77;;;15.20;;
15645;SDS011;7922;43.622;1.476;2022-12-18T08:56:44;15.83;;;13.60;;
15645;SDS011;7922;43.622;1.476;2022-12-18T08:59:10;14.43;;;12.93;;
15645;SDS011;7922;43.622;1.476;2022-12-18T09:01:35;12.80;;;11.27;;
15645;SDS011;7922;43.622;1.476;2022-12-18T09:04:00;16.07;;;12.67;;
15645;SDS011;7922;43.622;1.476;2022-12-18T09:06:26;11.73;;;10.53;;
15645;SDS011;7922;43.622;1.476;2022-12-18T09:08:51;12.63;;;10.80;;
15645;SDS011;7922;43.622;1.476;2022-12-18T09:11:23;13.23;;;11.77;;
15645;SDS011;7922;43.622;1.476;2022-12-18T09:13:51;11.53;;;9.97;;
15645;SDS011;7922;43.622;1.476;2022-12-18T09:16:17;11.23;;;10.13;;
15645;SDS011;7922;43.622;1.476;2022-12-18T09:18:43;11.87;;;10.67;;
15645;SDS011;7922;43.622;1.476;2022-12-18T09:21:12;10.10;;;9.10;;
15645;SDS011;7922;43.622;1.476;2022-12-18T09:23:39;9.40;;;7.30;;
15645;SDS011;7922;43.622;1.476;2022-12-18T09:26:05;8.40;;;7.50;;
15645;SDS011;7922;43.622;1.476;2022-12-18T09:28:30;8.07;;;7.03;;
15645;SDS011;7922;43.622;1.476;2022-12-18T09:30:55;10.70;;;6.93;;
15645;SDS011;7922;43.622;1.476;2022-12-18T09:33:21;7.93;;;7.10;;
15645;SDS011;7922;43.622;1.476;2022-12-18T09:35:46;8.27;;;7.10;;
15645;SDS011;7922;43.622;1.476;2022-12-18T09:38:12;8.50;;;7.10;;
15645;SDS011;7922;43.622;1.476;2022-12-18T09:40:41;7.83;;;6.97;;
15645;SDS011;7922;43.622;1.476;2022-12-18T09:43:09;8.70;;;6.83;;
15645;SDS011;7922;43.622;1.476;2022-12-18T09:45:41;9.67;;;7.00;;
15645;SDS011;7922;43.622;1.476;2022-12-18T09:48:10;7.83;;;6.80;;
15645;SDS011;7922;43.622;1.476;2022-12-18T09:50:57;6.90;;;6.00;;
15645;SDS011;7922;43.622;1.476;2022-12-18T09:53:26;7.37;;;6.30;;
15645;SDS011;7922;43.622;1.476;2022-12-18T09:55:53;6.60;;;5.87;;
15645;SDS011;7922;43.622;1.476;2022-12-18T09:58:33;6.43;;;5.60;;
15645;SDS011;7922;43.622;1.476;2022-12-18T10:01:06;6.97;;;6.35;;
15645;SDS011;7922;43.622;1.476;2022-12-18T10:03:35;5.87;;;5.20;;
15645;SDS011;7922;43.622;1.476;2022-12-18T10:06:08;6.07;;;5.20;;
15645;SDS011;7922;43.622;1.476;2022-12-18T10:08:43;8.60;;;6.00;;
15645;SDS011;7922;43.622;1.476;2022-12-18T10:14:05;13.50;;;5.90;;
15645;SDS011;7922;43.622;1.476;2022-12-18T10:21:31;6.57;;;5.10;;
15645;SDS011;7922;43.622;1.476;2022-12-18T10:24:18;5.60;;;4.80;;
15645;SDS011;7922;43.622;1.476;2022-12-18T10:26:48;6.07;;;4.40;;
15645;SDS011;7922;43.622;1.476;2022-12-18T10:29:14;4.70;;;4.30;;
15645;SDS011;7922;43.622;1.476;2022-12-18T10:31:40;4.43;;;4.10;;
15645;SDS011;7922;43.622;1.476;2022-12-18T10:34:12;4.93;;;4.43;;
15645;SDS011;7922;43.622;1.476;2022-12-18T10:36:37;4.37;;;3.93;;
15645;SDS011;7922;43.622;1.476;2022-12-18T10:41:40;5.20;;;4.37;;
15645;SDS011;7922;43.622;1.476;2022-12-18T10:46:40;5.27;;;4.03;;
15645;SDS011;7922;43.622;1.476;2022-12-18T10:49:17;4.60;;;4.20;;
15645;SDS011;7922;43.622;1.476;2022-12-18T10:51:43;4.80;;;4.30;;
15645;SDS011;7922;43.622;1.476;2022-12-18T10:54:14;4.47;;;4.00;;
15645;SDS011;7922;43.622;1.476;2022-12-18T10:56:41;5.20;;;4.70;;
15645;SDS011;7922;43.622;1.476;2022-12-18T10:59:07;5.90;;;4.13;;
15645;SDS011;7922;43.622;1.476;2022-12-18T11:01:51;4.43;;;4.03;;
15645;SDS011;7922;43.622;1.476;2022-12-18T11:04:25;4.57;;;4.00;;
15645;SDS011;7922;43.622;1.476;2022-12-18T11:07:02;5.03;;;3.97;;
15645;SDS011;7922;43.622;1.476;2022-12-18T11:09:32;5.70;;;4.30;;
15645;SDS011;7922;43.622;1.476;2022-12-18T11:11:59;4.97;;;4.37;;
15645;SDS011;7922;43.622;1.476;2022-12-18T11:14:31;4.13;;;3.83;;
15645;SDS011;7922;43.622;1.476;2022-12-18T11:16:58;5.50;;;3.70;;
15645;SDS011;7922;43.622;1.476;2022-12-18T11:21:55;4.20;;;3.80;;
15645;SDS011;7922;43.622;1.476;2022-12-18T11:24:31;5.20;;;3.73;;
15645;SDS011;7922;43.622;1.476;2022-12-18T11:26:58;4.83;;;4.23;;
15645;SDS011;7922;43.622;1.476;2022-12-18T11:29:33;4.83;;;4.07;;
15645;SDS011;7922;43.622;1.476;2022-12-18T11:34:45;4.97;;;4.13;;
15645;SDS011;7922;43.622;1.476;2022-12-18T11:37:13;6.90;;;4.80;;
15645;SDS011;7922;43.622;1.476;2022-12-18T11:39:41;3.77;;;3.47;;
15645;SDS011;7922;43.622;1.476;2022-12-18T11:42:11;4.57;;;4.13;;
15645;SDS011;7922;43.622;1.476;2022-12-18T11:50:19;5.37;;;3.60;;
15645;SDS011;7922;43.622;1.476;2022-12-18T11:52:47;5.37;;;3.40;;
15645;SDS011;7922;43.622;1.476;2022-12-18T11:55:14;4.23;;;3.37;;
15645;SDS011;7922;43.622;1.476;2022-12-18T11:57:50;4.07;;;3.67;;
15645;SDS011;7922;43.622;1.476;2022-12-18T12:00:20;4.93;;;3.40;;
15645;SDS011;7922;43.622;1.476;2022-12-18T12:37:13;6.73;;;3.70;;
15645;SDS011;7922;43.622;1.476;2022-12-18T12:39:45;5.20;;;3.77;;
15645;SDS011;7922;43.622;1.476;2022-12-18T12:45:05;4.87;;;4.37;;
15645;SDS011;7922;43.622;1.476;2022-12-18T12:47:32;5.73;;;3.53;;
15645;SDS011;7922;43.622;1.476;2022-12-18T12:49:59;4.53;;;4.10;;
15645;SDS011;7922;43.622;1.476;2022-12-18T12:52:32;6.13;;;4.13;;
15645;SDS011;7922;43.622;1.476;2022-12-18T12:55:00;4.17;;;3.77;;
15645;SDS011;7922;43.622;1.476;2022-12-18T12:57:34;4.77;;;4.37;;
15645;SDS011;7922;43.622;1.476;2022-12-18T13:00:17;5.57;;;4.20;;
15645;SDS011;7922;43.622;1.476;2022-12-18T13:02:48;4.90;;;4.47;;
15645;SDS011;7922;43.622;1.476;2022-12-18T13:05:24;4.93;;;4.40;;
15645;SDS011;7922;43.622;1.476;2022-12-18T13:07:54;4.77;;;4.20;;
15645;SDS011;7922;43.622;1.476;2022-12-18T13:10:23;4.57;;;4.00;;
15645;SDS011;7922;43.622;1.476;2022-12-18T13:12:57;4.73;;;4.33;;
15645;SDS011;7922;43.622;1.476;2022-12-18T13:15:24;5.53;;;4.43;;
15645;SDS011;7922;43.622;1.476;2022-12-18T13:20:45;4.80;;;4.30;;
15645;SDS011;7922;43.622;1.476;2022-12-18T13:25:53;4.73;;;4.20;;
15645;SDS011;7922;43.622;1.476;2022-12-18T13:30:58;9.27;;;8.40;;
15645;SDS011;7922;43.622;1.476;2022-12-18T13:38:34;7.57;;;5.50;;
15645;SDS011;7922;43.622;1.476;2022-12-18T13:41:01;8.10;;;6.67;;
15645;SDS011;7922;43.622;1.476;2022-12-18T13:43:28;12.10;;;10.07;;
15645;SDS011;7922;43.622;1.476;2022-12-18T13:45:59;8.13;;;7.37;;
15645;SDS011;7922;43.622;1.476;2022-12-18T13:48:26;8.17;;;5.57;;
15645;SDS011;7922;43.622;1.476;2022-12-18T13:53:44;4.77;;;4.30;;
15645;SDS011;7922;43.622;1.476;2022-12-18T13:56:16;6.03;;;5.43;;
15645;SDS011;7922;43.622;1.476;2022-12-18T13:58:42;4.60;;;4.20;;
15645;SDS011;7922;43.622;1.476;2022-12-18T14:01:23;4.67;;;4.20;;
15645;SDS011;7922;43.622;1.476;2022-12-18T14:03:49;6.70;;;4.40;;
15645;SDS011;7922;43.622;1.476;2022-12-18T14:06:14;5.77;;;4.17;;
15645;SDS011;7922;43.622;1.476;2022-12-18T14:08:40;5.90;;;4.50;;
15645;SDS011;7922;43.622;1.476;2022-12-18T14:11:07;4.57;;;4.10;;
15645;SDS011;7922;43.622;1.476;2022-12-18T14:13:36;5.03;;;4.37;;
15645;SDS011;7922;43.622;1.476;2022-12-18T14:16:03;5.67;;;4.80;;
15645;SDS011;7922;43.622;1.476;2022-12-18T14:18:36;5.37;;;4.70;;
15645;SDS011;7922;43.622;1.476;2022-12-18T14:23:45;8.53;;;6.77;;
15645;SDS011;7922;43.622;1.476;2022-12-18T14:26:24;9.27;;;6.80;;
15645;SDS011;7922;43.622;1.476;2022-12-18T14:28:50;8.13;;;5.90;;
15645;SDS011;7922;43.622;1.476;2022-12-18T14:31:18;5.40;;;4.60;;
15645;SDS011;7922;43.622;1.476;2022-12-18T14:33:48;6.80;;;5.20;;
15645;SDS011;7922;43.622;1.476;2022-12-18T14:36:15;10.27;;;6.50;;
15645;SDS011;7922;43.622;1.476;2022-12-18T14:38:52;7.37;;;5.97;;
15645;SDS011;7922;43.622;1.476;2022-12-18T14:41:19;16.40;;;11.10;;
15645;SDS011;7922;43.622;1.476;2022-12-18T14:43:46;12.40;;;7.10;;
15645;SDS011;7922;43.622;1.476;2022-12-18T14:48:56;8.47;;;5.63;;
15645;SDS011;7922;43.622;1.476;2022-12-18T14:51:23;15.10;;;8.70;;
15645;SDS011;7922;43.622;1.476;2022-12-18T14:53:53;6.40;;;4.83;;
15645;SDS011;7922;43.622;1.476;2022-12-18T14:56:24;7.80;;;6.40;;
15645;SDS011;7922;43.622;1.476;2022-12-18T14:58:55;12.20;;;7.10;;
15645;SDS011;7922;43.622;1.476;2022-12-18T15:01:32;7.83;;;5.20;;
15645;SDS011;7922;43.622;1.476;2022-12-18T15:03:59;8.17;;;6.13;;
15645;SDS011;7922;43.622;1.476;2022-12-18T15:06:32;8.33;;;5.17;;
15645;SDS011;7922;43.622;1.476;2022-12-18T15:08:59;6.23;;;4.73;;
15645;SDS011;7922;43.622;1.476;2022-12-18T15:13:53;5.43;;;4.60;;
15645;SDS011;7922;43.622;1.476;2022-12-18T15:16:18;6.70;;;6.10;;
15645;SDS011;7922;43.622;1.476;2022-12-18T15:18:43;5.57;;;4.60;;
15645;SDS011;7922;43.622;1.476;2022-12-18T15:21:10;5.20;;;4.80;;
15645;SDS011;7922;43.622;1.476;2022-12-18T15:23:38;6.70;;;4.50;;
15645;SDS011;7922;43.622;1.476;2022-12-18T15:26:10;5.50;;;5.00;;
15645;SDS011;7922;43.622;1.476;2022-12-18T15:33:38;6.20;;;4.63;;
15645;SDS011;7922;43.622;1.476;2022-12-18T15:36:09;6.53;;;5.37;;
15645;SDS011;7922;43.622;1.476;2022-12-18T15:38:35;5.83;;;4.53;;
15645;SDS011;7922;43.622;1.476;2022-12-18T15:41:01;5.07;;;4.60;;
15645;SDS011;7922;43.622;1.476;2022-12-18T15:43:27;6.20;;;4.60;;
15645;SDS011;7922;43.622;1.476;2022-12-18T15:45:52;6.83;;;4.33;;
15645;SDS011;7922;43.622;1.476;2022-12-18T15:48:19;5.43;;;4.63;;
15645;SDS011;7922;43.622;1.476;2022-12-18T15:50:46;6.70;;;4.13;;
15645;SDS011;7922;43.622;1.476;2022-12-18T15:53:12;8.60;;;5.03;;
15645;SDS011;7922;43.622;1.476;2022-12-18T15:55:37;7.50;;;4.90;;
15645;SDS011;7922;43.622;1.476;2022-12-18T15:58:03;4.97;;;4.40;;
15645;SDS011;7922;43.622;1.476;2022-12-18T16:00:29;5.03;;;4.33;;
15645;SDS011;7922;43.622;1.476;2022-12-18T16:02:54;7.20;;;5.20;;
15645;SDS011;7922;43.622;1.476;2022-12-18T16:05:20;5.97;;;4.73;;
15645;SDS011;7922;43.622;1.476;2022-12-18T16:07:46;7.03;;;4.80;;
15645;SDS011;7922;43.622;1.476;2022-12-18T16:10:11;6.83;;;4.73;;
15645;SDS011;7922;43.622;1.476;2022-12-18T16:12:37;6.20;;;4.67;;
15645;SDS011;7922;43.622;1.476;2022-12-18T16:15:02;7.40;;;4.80;;
15645;SDS011;7922;43.622;1.476;2022-12-18T16:17:29;6.20;;;4.43;;
15645;SDS011;7922;43.622;1.476;2022-12-18T16:19:54;5.77;;;4.70;;
15645;SDS011;7922;43.622;1.476;2022-12-18T16:22:21;9.40;;;5.10;;
15645;SDS011;7922;43.622;1.476;2022-12-18T16:24:51;5.03;;;4.53;;
15645;SDS011;7922;43.622;1.476;2022-12-18T16:27:17;6.70;;;4.90;;
15645;SDS011;7922;43.622;1.476;2022-12-18T16:29:42;8.00;;;5.10;;
15645;SDS011;7922;43.622;1.476;2022-12-18T16:32:08;4.63;;;4.23;;
15645;SDS011;7922;43.622;1.476;2022-12-18T16:34:38;10.97;;;5.37;;
15645;SDS011;7922;43.622;1.476;2022-12-18T16:37:05;8.47;;;5.27;;
15645;SDS011;7922;43.622;1.476;2022-12-18T16:39:32;8.53;;;4.90;;
15645;SDS011;7922;43.622;1.476;2022-12-18T16:41:58;6.63;;;4.70;;
15645;SDS011;7922;43.622;1.476;2022-12-18T16:44:23;7.73;;;5.37;;